createdAt,value
2022-10-18T00:01:07.144Z,14.70
2022-10-18T00:06:14.319Z,14.10
2022-10-18T00:08:42.392Z,14.50
2022-10-18T00:11:10.521Z,14.30
2022-10-18T00:13:38.590Z,14.90
2022-10-18T00:16:14.375Z,15.70
2022-10-18T00:18:43.761Z,17.70
2022-10-18T00:21:16.043Z,16.70
2022-10-18T00:23:47.005Z,16.30
2022-10-18T00:26:16.548Z,17.70
2022-10-18T00:28:46.245Z,19.90
2022-10-18T00:31:19.168Z,18.20
2022-10-18T00:33:51.294Z,20.40
2022-10-18T00:36:19.896Z,18.60
2022-10-18T00:38:49.175Z,17.00
2022-10-18T00:41:20.635Z,18.80
2022-10-18T00:43:55.535Z,17.30
2022-10-18T00:46:25.046Z,17.70
2022-10-18T00:48:55.792Z,17.50
2022-10-18T00:51:29.010Z,17.40
2022-10-18T00:53:57.553Z,18.20
2022-10-18T00:56:26.589Z,17.00
2022-10-18T00:58:55.056Z,16.90
2022-10-18T01:01:27.477Z,17.90
2022-10-18T01:03:57.758Z,18.10
2022-10-18T01:06:28.669Z,18.40
2022-10-18T01:09:21.246Z,17.80
2022-10-18T01:12:30.897Z,18.90
2022-10-18T01:15:28.236Z,17.70
2022-10-18T01:17:56.750Z,17.50
2022-10-18T01:20:39.840Z,19.20
2022-10-18T01:23:19.725Z,19.10
2022-10-18T01:26:26.752Z,19.20
2022-10-18T01:28:57.589Z,19.60
2022-10-18T01:31:35.154Z,20.70
2022-10-18T01:34:08.264Z,20.60
2022-10-18T01:36:40.671Z,20.10
2022-10-18T01:39:17.138Z,18.70
2022-10-18T01:41:48.208Z,19.30
2022-10-18T01:44:24.062Z,17.10
2022-10-18T01:46:55.346Z,17.10
2022-10-18T01:49:25.799Z,16.80
2022-10-18T01:51:53.766Z,17.20
2022-10-18T01:54:31.109Z,16.30
2022-10-18T01:57:01.998Z,17.30
2022-10-18T02:00:00.080Z,15.90
2022-10-18T02:02:40.238Z,16.20
2022-10-18T02:05:26.622Z,15.80
2022-10-18T02:08:22.057Z,16.10
2022-10-18T02:13:29.814Z,16.70
2022-10-18T02:16:05.115Z,15.30
2022-10-18T02:18:48.595Z,16.10
2022-10-18T02:21:19.591Z,17.50
2022-10-18T02:23:48.802Z,17.10
2022-10-18T02:26:17.222Z,16.80
2022-10-18T02:28:46.044Z,17.20
2022-10-18T02:31:23.123Z,14.50
2022-10-18T02:33:56.077Z,15.50
2022-10-18T02:36:31.867Z,16.10
2022-10-18T02:39:04.900Z,15.30
2022-10-18T02:41:34.057Z,15.20
2022-10-18T02:44:02.697Z,15.80
2022-10-18T02:46:31.192Z,15.50
2022-10-18T02:48:59.568Z,15.60
2022-10-18T02:51:27.963Z,14.00
2022-10-18T02:53:56.194Z,12.10
2022-10-18T02:56:24.599Z,13.50
2022-10-18T02:58:52.905Z,14.60
2022-10-18T03:01:21.288Z,15.00
2022-10-18T03:03:49.801Z,15.00
2022-10-18T03:06:18.238Z,15.90
2022-10-18T03:08:46.655Z,15.60
2022-10-18T03:11:14.547Z,16.00
2022-10-18T03:13:42.596Z,16.00
2022-10-18T03:16:10.799Z,14.20
2022-10-18T03:18:38.934Z,14.40
2022-10-18T03:21:08.210Z,14.70
2022-10-18T03:23:37.203Z,15.50
2022-10-18T03:26:05.405Z,15.30
2022-10-18T03:28:33.405Z,15.40
2022-10-18T03:31:02.597Z,16.90
2022-10-18T03:33:32.300Z,17.50
2022-10-18T03:36:01.007Z,16.50
2022-10-18T03:38:29.177Z,17.60
2022-10-18T03:40:57.260Z,16.90
2022-10-18T03:43:25.387Z,15.90
2022-10-18T03:45:53.558Z,17.00
2022-10-18T03:48:21.904Z,17.80
2022-10-18T03:50:50.196Z,18.10
2022-10-18T03:53:18.593Z,16.70
2022-10-18T03:55:54.291Z,16.40
2022-10-18T03:58:23.303Z,15.90
2022-10-18T04:00:55.947Z,16.00
2022-10-18T04:03:24.645Z,15.00
2022-10-18T04:05:53.027Z,15.90
2022-10-18T04:08:21.335Z,15.30
2022-10-18T04:10:49.604Z,15.40
2022-10-18T04:13:18.446Z,14.60
2022-10-18T04:15:46.774Z,14.90
2022-10-18T04:18:14.852Z,15.50
2022-10-18T04:20:43.303Z,14.40
2022-10-18T04:23:11.521Z,13.70
2022-10-18T04:25:39.865Z,15.60
2022-10-18T04:28:08.047Z,14.70
2022-10-18T04:30:36.264Z,17.20
2022-10-18T04:33:04.621Z,18.80
2022-10-18T04:35:32.967Z,16.00
2022-10-18T04:38:01.344Z,16.20
2022-10-18T04:40:30.708Z,16.40
2022-10-18T04:42:59.161Z,17.20
2022-10-18T04:45:27.534Z,16.20
2022-10-18T04:47:55.604Z,15.50
2022-10-18T04:50:23.614Z,16.10
2022-10-18T04:52:53.775Z,16.20
2022-10-18T04:55:22.030Z,14.70
2022-10-18T04:57:50.141Z,15.40
2022-10-18T05:00:18.220Z,14.90
2022-10-18T05:02:46.523Z,17.30
2022-10-18T05:05:15.104Z,15.70
2022-10-18T05:07:43.899Z,15.40
2022-10-18T05:10:12.354Z,16.10
2022-10-18T05:12:40.704Z,16.30
2022-10-18T05:15:09.671Z,14.60
2022-10-18T05:17:38.160Z,14.50
2022-10-18T05:20:06.573Z,15.00
2022-10-18T05:22:34.734Z,15.20
2022-10-18T05:25:03.197Z,14.10
2022-10-18T05:27:31.451Z,15.50
2022-10-18T05:30:01.380Z,15.90
2022-10-18T05:32:33.396Z,16.50
2022-10-18T05:35:01.925Z,16.90
2022-10-18T05:37:30.537Z,15.10
2022-10-18T05:39:58.917Z,16.40
2022-10-18T05:42:26.995Z,13.80
2022-10-18T05:44:55.738Z,15.00
2022-10-18T05:47:24.451Z,15.70
2022-10-18T05:49:52.755Z,15.30
2022-10-18T05:52:21.654Z,15.70
2022-10-18T05:54:49.851Z,16.10
2022-10-18T05:57:18.364Z,14.00
2022-10-18T05:59:47.419Z,15.10
2022-10-18T06:02:15.845Z,14.70
2022-10-18T06:04:44.278Z,14.40
2022-10-18T06:07:12.749Z,14.50
2022-10-18T06:09:42.064Z,14.30
2022-10-18T06:12:10.845Z,13.90
2022-10-18T06:14:39.094Z,15.80
2022-10-18T06:17:07.456Z,15.30
2022-10-18T06:19:36.384Z,15.30
2022-10-18T06:22:04.905Z,15.20
2022-10-18T06:24:33.676Z,15.80
2022-10-18T06:27:08.499Z,15.10
2022-10-18T06:29:38.940Z,14.80
2022-10-18T06:32:08.252Z,14.80
2022-10-18T06:34:36.674Z,15.30
2022-10-18T06:37:05.319Z,16.40
2022-10-18T06:39:34.577Z,15.50
2022-10-18T06:42:03.333Z,15.50
2022-10-18T06:44:34.110Z,15.00
2022-10-18T06:47:02.496Z,15.70
2022-10-18T06:49:30.691Z,16.60
2022-10-18T06:52:00.203Z,15.50
2022-10-18T06:54:29.424Z,15.50
2022-10-18T06:57:05.344Z,16.20
2022-10-18T06:59:36.935Z,16.50
2022-10-18T07:02:06.905Z,16.80
2022-10-18T07:04:35.996Z,18.50
2022-10-18T07:07:04.646Z,17.80
2022-10-18T07:09:33.334Z,17.20
2022-10-18T07:12:01.631Z,18.70
2022-10-18T07:14:30.830Z,17.60
2022-10-18T07:17:00.656Z,18.70
2022-10-18T07:19:29.248Z,19.20
2022-10-18T07:21:58.284Z,18.10
2022-10-18T07:24:26.966Z,17.00
2022-10-18T07:26:55.807Z,18.80
2022-10-18T07:29:24.896Z,20.00
2022-10-18T07:31:53.559Z,20.40
2022-10-18T07:34:24.281Z,19.60
2022-10-18T07:36:52.880Z,19.20
2022-10-18T07:39:22.006Z,23.10
2022-10-18T07:41:51.317Z,23.30
2022-10-18T07:44:20.495Z,21.10
2022-10-18T07:46:51.194Z,22.40
2022-10-18T07:49:19.583Z,21.30
2022-10-18T07:51:49.672Z,23.10
2022-10-18T07:54:18.580Z,25.60
2022-10-18T07:56:47.494Z,26.00
2022-10-18T07:59:16.146Z,25.10
2022-10-18T08:01:45.956Z,22.80
2022-10-18T08:04:16.487Z,22.00
2022-10-18T08:06:45.118Z,21.60
2022-10-18T08:09:13.983Z,27.10
2022-10-18T08:11:42.702Z,25.40
2022-10-18T08:14:11.833Z,28.10
2022-10-18T08:16:40.932Z,31.30
2022-10-18T08:19:10.601Z,32.20
2022-10-18T08:21:39.609Z,28.60
2022-10-18T08:24:08.671Z,30.00
2022-10-18T08:26:37.462Z,26.40
2022-10-18T08:29:24.085Z,23.90
2022-10-18T08:31:55.224Z,26.10
2022-10-18T08:34:24.297Z,23.40
2022-10-18T08:36:52.879Z,25.90
2022-10-18T08:39:21.870Z,24.50
2022-10-18T08:42:08.479Z,24.20
2022-10-18T08:44:45.420Z,26.70
2022-10-18T08:47:18.903Z,25.50
2022-10-18T08:49:55.183Z,26.50
2022-10-18T08:52:56.470Z,24.60
2022-10-18T08:55:39.498Z,24.60
2022-10-18T08:58:18.045Z,19.90
2022-10-18T09:00:50.951Z,22.80
2022-10-18T09:03:30.644Z,21.00
2022-10-18T09:06:23.429Z,21.80
2022-10-18T09:09:16.468Z,25.00
2022-10-18T09:12:17.352Z,25.20
2022-10-18T09:15:01.571Z,26.70
2022-10-18T09:17:52.156Z,23.90
2022-10-18T09:20:26.667Z,25.50
2022-10-18T09:23:16.350Z,24.40
2022-10-18T09:26:02.034Z,21.70
2022-10-18T09:28:39.619Z,24.40
2022-10-18T09:31:20.084Z,19.70
2022-10-18T09:34:13.781Z,23.20
2022-10-18T09:36:45.462Z,25.00
2022-10-18T09:39:23.548Z,22.80
2022-10-18T09:42:02.093Z,22.90
2022-10-18T09:44:36.768Z,27.10
2022-10-18T09:47:21.489Z,24.20
2022-10-18T09:49:56.486Z,28.70
2022-10-18T09:52:37.786Z,27.70
2022-10-18T09:55:17.905Z,23.90
2022-10-18T09:57:53.123Z,21.90
2022-10-18T10:00:26.765Z,21.30
2022-10-18T10:03:00.650Z,21.20
2022-10-18T10:05:29.053Z,18.60
2022-10-18T10:08:00.313Z,20.20
2022-10-18T10:10:30.995Z,19.10
2022-10-18T10:13:23.399Z,17.60
2022-10-18T10:16:03.984Z,20.60
2022-10-18T10:18:36.731Z,20.40
2022-10-18T10:21:08.526Z,20.20
2022-10-18T10:23:39.456Z,17.30
2022-10-18T10:26:22.071Z,19.00
2022-10-18T10:28:51.897Z,17.60
2022-10-18T10:31:29.485Z,15.50
2022-10-18T10:34:13.509Z,19.70
2022-10-18T10:36:55.768Z,15.50
2022-10-18T10:39:25.372Z,18.70
2022-10-18T10:41:58.370Z,20.10
2022-10-18T10:44:31.007Z,19.60
2022-10-18T10:47:00.508Z,18.10
2022-10-18T10:49:46.872Z,18.10
2022-10-18T10:52:36.619Z,19.20
2022-10-18T10:57:58.925Z,18.80
2022-10-18T11:00:43.972Z,18.00
2022-10-18T11:03:28.931Z,17.30
2022-10-18T11:06:01.072Z,17.70
2022-10-18T11:08:39.306Z,18.00
2022-10-18T11:11:28.029Z,15.60
2022-10-18T11:14:25.685Z,17.70
2022-10-18T11:17:14.696Z,15.20
2022-10-18T11:20:09.859Z,16.70
2022-10-18T11:22:51.211Z,15.10
2022-10-18T11:25:25.434Z,14.90
2022-10-18T11:28:03.664Z,14.40
2022-10-18T11:30:50.473Z,15.50
2022-10-18T11:34:03.579Z,12.70
2022-10-18T11:36:56.132Z,11.90
2022-10-18T11:40:02.404Z,10.10
2022-10-18T11:42:54.547Z,11.50
2022-10-18T11:45:40.584Z,10.80
2022-10-18T11:48:46.676Z,10.90
2022-10-18T11:51:33.930Z,10.10
2022-10-18T11:54:22.007Z,9.60
2022-10-18T11:57:07.496Z,10.40
2022-10-18T12:02:50.469Z,11.70
2022-10-18T12:05:24.313Z,9.20
2022-10-18T12:07:55.930Z,10.40
2022-10-18T12:10:37.825Z,10.60
2022-10-18T12:13:19.438Z,9.80
2022-10-18T12:15:48.516Z,10.10
2022-10-18T12:18:21.670Z,11.10
2022-10-18T12:20:53.608Z,10.40
2022-10-18T12:23:45.252Z,9.50
2022-10-18T12:26:14.470Z,9.90
2022-10-18T12:29:03.472Z,9.20
2022-10-18T12:31:35.232Z,8.90
2022-10-18T12:34:27.752Z,8.70
2022-10-18T12:39:57.662Z,9.80
2022-10-18T12:42:32.639Z,9.30
2022-10-18T12:45:16.831Z,8.20
2022-10-18T12:47:45.314Z,8.80
2022-10-18T12:50:34.992Z,9.10
2022-10-18T12:53:04.109Z,8.80
2022-10-18T12:55:40.225Z,9.40
2022-10-18T12:58:15.041Z,8.50
2022-10-18T13:00:43.922Z,9.00
2022-10-18T13:03:12.216Z,9.00
2022-10-18T13:05:54.743Z,8.80
2022-10-18T13:08:38.925Z,9.20
2022-10-18T13:11:10.929Z,11.00
2022-10-18T13:14:02.353Z,9.50
2022-10-18T13:16:30.876Z,9.40
2022-10-18T13:19:14.721Z,8.10
2022-10-18T13:21:58.412Z,8.30
2022-10-18T13:24:45.686Z,8.80
2022-10-18T13:27:36.599Z,9.10
2022-10-18T13:30:28.083Z,8.80
2022-10-18T13:33:19.639Z,9.10
2022-10-18T13:35:55.090Z,8.90
2022-10-18T13:38:23.470Z,9.00
2022-10-18T13:41:07.269Z,9.10
2022-10-18T13:43:54.496Z,7.80
2022-10-18T13:46:26.104Z,8.90
2022-10-18T13:49:20.329Z,7.80
2022-10-18T13:52:32.199Z,8.30
2022-10-18T13:55:23.885Z,7.90
2022-10-18T13:57:58.903Z,8.00
2022-10-18T14:00:52.247Z,8.00
2022-10-18T14:06:27.150Z,7.30
2022-10-18T14:09:45.143Z,7.60
2022-10-18T14:12:31.270Z,7.60
2022-10-18T14:15:25.015Z,8.00
2022-10-18T14:18:13.117Z,6.90
2022-10-18T14:21:01.568Z,8.10
2022-10-18T14:23:45.307Z,7.60
2022-10-18T14:26:17.136Z,7.50
2022-10-18T14:29:05.852Z,8.20
2022-10-18T14:31:35.371Z,7.90
2022-10-18T14:34:04.839Z,7.80
2022-10-18T14:36:41.389Z,7.30
2022-10-18T14:39:21.389Z,8.40
2022-10-18T14:41:53.574Z,8.50
2022-10-18T14:44:26.913Z,8.10
2022-10-18T14:46:55.894Z,8.60
2022-10-18T14:49:26.030Z,8.90
2022-10-18T14:51:58.849Z,8.80
2022-10-18T14:54:34.988Z,9.20
2022-10-18T14:57:07.900Z,9.10
2022-10-18T14:59:58.918Z,9.40
2022-10-18T15:02:30.499Z,9.20
2022-10-18T15:05:11.083Z,9.60
2022-10-18T15:07:40.035Z,9.20
2022-10-18T15:10:11.463Z,8.30
2022-10-18T15:13:04.505Z,9.40
2022-10-18T15:15:33.604Z,12.10
2022-10-18T15:18:02.482Z,10.60
2022-10-18T15:20:33.480Z,10.20
2022-10-18T15:23:33.219Z,9.50
2022-10-18T15:26:08.547Z,9.50
2022-10-18T15:28:51.625Z,8.70
2022-10-18T15:31:27.918Z,10.10
2022-10-18T15:34:11.029Z,10.70
2022-10-18T15:36:39.587Z,10.90
2022-10-18T15:39:13.914Z,11.40
2022-10-18T15:42:03.534Z,11.30
2022-10-18T15:44:51.537Z,10.90
2022-10-18T15:47:21.494Z,11.70
2022-10-18T15:49:59.151Z,11.60
2022-10-18T15:52:39.420Z,11.80
2022-10-18T15:55:30.381Z,11.20
2022-10-18T15:58:17.090Z,12.00
2022-10-18T16:00:47.141Z,11.50
2022-10-18T16:03:18.143Z,10.70
2022-10-18T16:05:46.713Z,11.60
2022-10-18T16:08:30.787Z,11.60
2022-10-18T16:11:00.066Z,11.60
2022-10-18T16:13:28.653Z,11.70
2022-10-18T16:15:57.181Z,12.50
2022-10-18T16:18:26.347Z,12.40
2022-10-18T16:20:54.515Z,13.60
2022-10-18T16:23:28.767Z,13.80
2022-10-18T16:25:57.245Z,14.80
2022-10-18T16:28:26.726Z,14.30
2022-10-18T16:31:00.973Z,13.50
2022-10-18T16:33:31.136Z,14.80
2022-10-18T16:35:59.678Z,15.70
2022-10-18T16:38:36.400Z,23.00
2022-10-18T16:41:06.324Z,20.40
2022-10-18T16:43:35.422Z,18.70
2022-10-18T16:46:05.117Z,19.60
2022-10-18T16:48:33.288Z,23.20
2022-10-18T16:51:02.140Z,25.90
2022-10-18T16:53:30.123Z,24.40
2022-10-18T16:56:00.887Z,23.30
2022-10-18T16:58:30.889Z,25.20
2022-10-18T17:01:01.011Z,23.50
2022-10-18T17:03:31.031Z,29.10
2022-10-18T17:05:59.371Z,30.10
2022-10-18T17:08:28.341Z,30.50
2022-10-18T17:10:59.573Z,29.90
2022-10-18T17:13:27.947Z,27.70
2022-10-18T17:15:56.672Z,27.20
2022-10-18T17:18:30.753Z,25.50
2022-10-18T17:21:03.774Z,24.10
2022-10-18T17:23:32.406Z,20.60
2022-10-18T17:26:08.519Z,18.80
2022-10-18T17:28:58.187Z,20.40
2022-10-18T17:31:26.686Z,17.60
2022-10-18T17:33:55.547Z,18.30
2022-10-18T17:36:23.679Z,17.80
2022-10-18T17:38:53.139Z,25.70
2022-10-18T17:41:21.680Z,20.90
2022-10-18T17:43:50.023Z,19.20
2022-10-18T17:46:18.273Z,18.80
2022-10-18T17:48:48.053Z,17.20
2022-10-18T17:51:17.278Z,17.50
2022-10-18T17:53:45.568Z,16.50
2022-10-18T17:56:14.652Z,17.10
2022-10-18T17:58:47.075Z,16.70
2022-10-18T18:01:17.899Z,15.50
2022-10-18T18:03:49.833Z,16.40
2022-10-18T18:06:34.177Z,15.70
2022-10-18T18:09:07.520Z,16.90
2022-10-18T18:11:38.115Z,16.30
2022-10-18T18:14:10.331Z,19.30
2022-10-18T18:16:41.209Z,18.40
2022-10-18T18:19:10.634Z,18.50
2022-10-18T18:21:40.627Z,20.90
2022-10-18T18:24:10.212Z,21.10
2022-10-18T18:26:40.060Z,21.10
2022-10-18T18:29:09.257Z,21.50
2022-10-18T18:31:39.965Z,20.90
2022-10-18T18:34:11.633Z,19.50
2022-10-18T18:36:40.245Z,19.60
2022-10-18T18:39:16.245Z,20.90
2022-10-18T18:41:44.349Z,19.10
2022-10-18T18:44:12.846Z,20.00
2022-10-18T18:46:41.083Z,20.00
2022-10-18T18:49:10.932Z,20.90
2022-10-18T18:51:40.674Z,20.30
2022-10-18T18:54:11.006Z,21.70
2022-10-18T18:56:39.199Z,21.20
2022-10-18T18:59:07.986Z,20.40
2022-10-18T19:01:38.258Z,21.20
2022-10-18T19:04:08.562Z,22.00
2022-10-18T19:06:39.694Z,21.40
2022-10-18T19:09:18.567Z,23.70
2022-10-18T19:11:48.273Z,24.80
2022-10-18T19:14:16.917Z,25.50
2022-10-18T19:16:57.620Z,25.30
2022-10-18T19:19:30.813Z,25.10
2022-10-18T19:22:01.221Z,24.90
2022-10-18T19:24:30.449Z,23.00
2022-10-18T19:27:09.765Z,22.70
2022-10-18T19:29:39.995Z,22.50
2022-10-18T19:32:12.406Z,21.40
2022-10-18T19:34:41.555Z,21.90
2022-10-18T19:37:13.625Z,21.30
2022-10-18T19:39:42.458Z,19.60
2022-10-18T19:42:15.728Z,20.30
2022-10-18T19:44:47.154Z,20.60
2022-10-18T19:47:16.332Z,20.00
2022-10-18T19:49:44.641Z,20.80
2022-10-18T19:52:13.109Z,21.80
2022-10-18T19:54:41.390Z,22.90
2022-10-18T19:57:09.624Z,22.00
2022-10-18T19:59:37.704Z,21.50
2022-10-18T20:02:05.963Z,21.60
2022-10-18T20:04:35.259Z,23.70
2022-10-18T20:07:03.630Z,23.50
2022-10-18T20:09:32.098Z,23.30
2022-10-18T20:12:00.067Z,22.70
2022-10-18T20:14:28.131Z,23.40
2022-10-18T20:16:56.126Z,22.90
2022-10-18T20:19:24.257Z,20.60
2022-10-18T20:21:55.922Z,20.30
2022-10-18T20:24:23.806Z,20.10
2022-10-18T20:29:20.974Z,21.30
2022-10-18T20:31:48.879Z,21.20
2022-10-18T20:34:17.011Z,22.10
2022-10-18T20:36:44.900Z,23.50
2022-10-18T20:39:12.748Z,22.60
2022-10-18T20:41:41.811Z,21.50
2022-10-18T20:44:14.075Z,21.50
2022-10-18T20:46:43.253Z,21.00
2022-10-18T20:49:14.991Z,19.20
2022-10-18T20:51:43.235Z,18.90
2022-10-18T20:54:11.983Z,19.50
2022-10-18T20:56:39.876Z,17.80
2022-10-18T20:59:10.098Z,19.40
2022-10-18T21:01:39.628Z,20.10
2022-10-18T21:04:10.006Z,18.70
2022-10-18T21:06:43.917Z,16.70
2022-10-18T21:09:18.289Z,18.30
2022-10-18T21:11:49.930Z,17.10
2022-10-18T21:14:20.136Z,17.40
2022-10-18T21:16:49.557Z,16.80
2022-10-18T21:19:23.048Z,16.80
2022-10-18T21:21:54.520Z,16.60
2022-10-18T21:24:25.190Z,18.20
2022-10-18T21:26:54.862Z,15.70
2022-10-18T21:29:27.133Z,15.60
2022-10-18T21:31:59.468Z,15.80
2022-10-18T21:34:27.509Z,15.00
2022-10-18T21:36:55.428Z,16.30
2022-10-18T21:41:57.114Z,16.20
2022-10-18T21:44:25.309Z,16.40
2022-10-18T21:46:53.238Z,15.70
2022-10-18T21:49:25.081Z,17.40
2022-10-18T21:51:53.231Z,17.90
2022-10-18T21:54:21.227Z,16.50
2022-10-18T21:56:49.159Z,17.40
2022-10-18T21:59:17.216Z,17.30
2022-10-18T22:01:45.941Z,15.20
2022-10-18T22:04:25.173Z,16.90
2022-10-18T22:06:53.306Z,15.40
2022-10-18T22:09:22.190Z,15.40
2022-10-18T22:11:53.285Z,15.20
2022-10-18T22:14:22.757Z,15.10
2022-10-18T22:16:52.096Z,14.50
2022-10-18T22:19:20.752Z,14.80
2022-10-18T22:21:49.510Z,13.70
2022-10-18T22:24:18.318Z,14.40
2022-10-18T22:26:47.271Z,13.30
2022-10-18T22:29:18.050Z,13.80
2022-10-18T22:31:49.472Z,13.20
2022-10-18T22:34:21.181Z,13.00
2022-10-18T22:36:49.199Z,13.20
2022-10-18T22:39:17.627Z,13.00
2022-10-18T22:41:46.679Z,13.00
2022-10-18T22:44:15.590Z,12.80
2022-10-18T22:46:43.849Z,14.00
2022-10-18T22:49:12.358Z,13.30
2022-10-18T22:51:40.941Z,14.40
2022-10-18T22:54:09.889Z,15.00
2022-10-18T22:56:37.906Z,13.20
2022-10-18T22:59:05.885Z,13.30
2022-10-18T23:01:34.039Z,12.40
2022-10-18T23:04:03.375Z,12.00
2022-10-18T23:06:34.060Z,11.50
2022-10-18T23:09:06.451Z,12.10
2022-10-18T23:11:36.024Z,11.90
2022-10-18T23:14:06.091Z,10.90
2022-10-18T23:16:34.321Z,11.50
2022-10-18T23:19:03.112Z,11.10
2022-10-18T23:21:31.088Z,10.20
2022-10-18T23:23:58.992Z,12.70
2022-10-18T23:26:28.214Z,10.60
2022-10-18T23:28:56.579Z,11.80
2022-10-18T23:31:31.176Z,13.30
2022-10-18T23:34:02.316Z,13.10
2022-10-18T23:36:31.771Z,13.00
2022-10-18T23:38:59.883Z,13.10
2022-10-18T23:41:27.985Z,13.20
2022-10-18T23:43:56.183Z,12.70
2022-10-18T23:46:24.833Z,12.40
2022-10-18T23:48:52.993Z,12.10
2022-10-18T23:51:21.039Z,11.90
2022-10-18T23:53:49.163Z,11.90
2022-10-18T23:56:17.398Z,11.40
2022-10-18T23:58:46.057Z,11.40
